createdAt,value
2019-06-27T00:00:06.564Z,94.26
2019-06-27T00:01:06.552Z,93.49
2019-06-27T00:02:06.545Z,93.30
2019-06-27T00:03:06.539Z,93.59
2019-06-27T00:04:06.543Z,93.77
2019-06-27T00:05:06.535Z,93.73
2019-06-27T00:06:06.534Z,94.31
2019-06-27T00:07:06.525Z,94.98
2019-06-27T00:08:06.523Z,94.69
2019-06-27T00:09:06.517Z,94.79
2019-06-27T00:10:06.514Z,95.26
2019-06-27T00:11:06.504Z,95.46
2019-06-27T00:12:06.505Z,95.07
2019-06-27T00:13:06.500Z,95.26
2019-06-27T00:14:06.502Z,95.46
2019-06-27T00:15:06.489Z,95.46
2019-06-27T00:16:06.483Z,95.46
2019-06-27T00:17:06.655Z,95.46
2019-06-27T00:18:06.478Z,95.46
2019-06-27T00:19:06.469Z,95.65
2019-06-27T00:20:06.463Z,95.17
2019-06-27T00:21:06.464Z,95.26
2019-06-27T00:22:06.456Z,95.26
2019-06-27T00:23:06.453Z,95.26
2019-06-27T00:24:06.452Z,95.55
2019-06-27T00:25:06.445Z,95.46
2019-06-27T00:26:06.438Z,95.46
2019-06-27T00:27:06.435Z,95.17
2019-06-27T00:28:06.430Z,96.22
2019-06-27T00:29:06.430Z,96.42
2019-06-27T00:30:06.414Z,96.61
2019-06-27T00:31:06.429Z,96.51
2019-06-27T00:32:06.412Z,96.22
2019-06-27T00:33:06.411Z,96.03
2019-06-27T00:34:06.408Z,96.13
2019-06-27T00:35:06.399Z,96.22
2019-06-27T00:36:06.401Z,96.32
2019-06-27T00:37:06.394Z,96.13
2019-06-27T00:38:06.381Z,96.42
2019-06-27T00:39:06.381Z,96.80
2019-06-27T00:40:06.378Z,96.70
2019-06-27T00:41:06.374Z,96.61
2019-06-27T00:42:06.383Z,96.99
2019-06-27T00:43:06.359Z,97.33
2019-06-27T00:44:06.357Z,96.99
2019-06-27T00:45:06.353Z,97.47
2019-06-27T00:46:06.354Z,96.99
2019-06-27T00:47:06.350Z,96.70
2019-06-27T00:48:06.339Z,96.89
2019-06-27T00:49:06.335Z,96.22
2019-06-27T00:50:06.330Z,96.61
2019-06-27T00:51:06.329Z,96.47
2019-06-27T00:52:06.324Z,96.51
2019-06-27T00:53:06.320Z,96.22
2019-06-27T00:54:06.326Z,96.22
2019-06-27T00:55:06.314Z,96.22
2019-06-27T00:56:06.389Z,95.46
2019-06-27T00:57:13.919Z,95.84
2019-06-27T00:58:06.294Z,94.98
2019-06-27T00:59:06.290Z,95.36
2019-06-27T01:00:06.288Z,95.07
2019-06-27T01:01:06.280Z,95.55
2019-06-27T01:02:06.276Z,95.46
2019-06-27T01:03:06.277Z,95.55
2019-06-27T01:04:06.273Z,94.69
2019-06-27T01:05:06.265Z,95.46
2019-06-27T01:06:06.255Z,94.69
2019-06-27T01:07:06.258Z,94.49
2019-06-27T01:08:06.251Z,94.69
2019-06-27T01:09:06.248Z,94.69
2019-06-27T01:10:06.236Z,94.31
2019-06-27T01:11:06.236Z,94.21
2019-06-27T01:12:06.230Z,94.59
2019-06-27T01:13:06.228Z,94.69
2019-06-27T01:14:06.222Z,95.07
2019-06-27T01:15:06.214Z,95.07
2019-06-27T01:16:06.209Z,96.08
2019-06-27T01:17:06.243Z,96.18
2019-06-27T01:18:06.212Z,96.08
2019-06-27T01:19:06.195Z,95.12
2019-06-27T01:20:06.191Z,95.36
2019-06-27T01:21:06.187Z,95.36
2019-06-27T01:22:06.182Z,95.41
2019-06-27T01:23:06.225Z,95.12
2019-06-27T01:24:06.176Z,95.41
2019-06-27T01:25:06.176Z,95.31
2019-06-27T01:26:06.168Z,95.46
2019-06-27T01:27:06.165Z,95.41
2019-06-27T01:28:06.156Z,95.51
2019-06-27T01:29:06.153Z,95.12
2019-06-27T01:30:06.146Z,94.84
2019-06-27T01:31:06.143Z,94.49
2019-06-27T01:32:06.153Z,94.02
2019-06-27T01:33:06.135Z,94.21
2019-06-27T01:34:06.126Z,94.40
2019-06-27T01:35:06.132Z,93.54
2019-06-27T01:36:06.120Z,94.40
2019-06-27T01:37:06.114Z,94.40
2019-06-27T01:38:06.110Z,93.44
2019-06-27T01:39:06.120Z,93.63
2019-06-27T01:40:06.101Z,93.35
2019-06-27T01:41:06.099Z,94.40
2019-06-27T01:42:06.093Z,93.63
2019-06-27T01:43:06.091Z,94.64
2019-06-27T01:44:06.085Z,94.49
2019-06-27T01:45:06.078Z,93.78
2019-06-27T01:46:06.073Z,94.12
2019-06-27T01:47:06.068Z,93.63
2019-06-27T01:48:06.063Z,94.31
2019-06-27T01:49:06.065Z,93.54
2019-06-27T01:50:06.054Z,93.40
2019-06-27T01:51:06.047Z,93.92
2019-06-27T01:52:06.048Z,94.54
2019-06-27T01:53:06.041Z,93.44
2019-06-27T01:54:06.040Z,94.07
2019-06-27T01:55:06.025Z,93.68
2019-06-27T01:56:06.024Z,93.73
2019-06-27T01:57:06.025Z,93.35
2019-06-27T01:58:06.025Z,93.73
2019-06-27T01:59:06.010Z,93.44
2019-06-27T02:00:06.009Z,93.30
2019-06-27T02:01:06.006Z,93.49
2019-06-27T02:02:05.995Z,93.21
2019-06-27T02:03:05.994Z,94.26
2019-06-27T02:04:05.991Z,94.26
2019-06-27T02:05:05.992Z,94.26
2019-06-27T02:06:05.974Z,94.26
2019-06-27T02:07:05.997Z,93.97
2019-06-27T02:08:05.972Z,94.17
2019-06-27T02:09:05.969Z,93.68
2019-06-27T02:10:05.966Z,94.07
2019-06-27T02:11:05.955Z,94.26
2019-06-27T02:12:05.949Z,94.26
2019-06-27T02:13:05.945Z,94.45
2019-06-27T02:14:05.945Z,94.64
2019-06-27T02:15:05.942Z,95.31
2019-06-27T02:16:05.935Z,94.54
2019-06-27T02:17:05.922Z,95.60
2019-06-27T02:18:05.925Z,94.64
2019-06-27T02:19:05.920Z,95.03
2019-06-27T02:20:05.917Z,95.36
2019-06-27T02:21:05.914Z,95.56
2019-06-27T02:22:05.901Z,96.03
2019-06-27T02:23:05.901Z,96.13
2019-06-27T02:24:05.904Z,95.94
2019-06-27T02:25:05.894Z,96.13
2019-06-27T02:26:05.883Z,95.46
2019-06-27T02:27:05.878Z,96.08
2019-06-27T02:28:05.874Z,95.94
2019-06-27T02:29:05.877Z,95.12
2019-06-27T02:30:05.885Z,95.21
2019-06-27T02:31:05.869Z,95.31
2019-06-27T02:32:05.854Z,95.60
2019-06-27T02:33:05.852Z,95.41
2019-06-27T02:34:07.052Z,94.54
2019-06-27T02:35:05.850Z,94.17
2019-06-27T02:36:05.844Z,94.26
2019-06-27T02:37:05.839Z,94.26
2019-06-27T02:38:05.834Z,93.88
2019-06-27T02:39:05.831Z,94.07
2019-06-27T02:40:05.820Z,93.68
2019-06-27T02:41:05.817Z,94.17
2019-06-27T02:42:05.806Z,93.97
2019-06-27T02:43:05.882Z,94.17
2019-06-27T02:44:05.806Z,94.17
2019-06-27T02:45:05.794Z,93.97
2019-06-27T02:46:05.805Z,94.64
2019-06-27T02:47:05.783Z,94.84
2019-06-27T02:48:05.788Z,94.07
2019-06-27T02:49:05.777Z,94.54
2019-06-27T02:50:05.776Z,94.59
2019-06-27T02:51:05.768Z,95.17
2019-06-27T02:52:05.763Z,95.36
2019-06-27T02:53:05.755Z,94.93
2019-06-27T02:54:05.755Z,95.56
2019-06-27T02:55:05.749Z,94.89
2019-06-27T02:56:05.748Z,95.41
2019-06-27T02:57:05.743Z,95.17
2019-06-27T02:58:27.901Z,95.17
2019-06-27T02:59:05.727Z,95.36
2019-06-27T03:00:05.729Z,95.17
2019-06-27T03:01:05.721Z,94.89
2019-06-27T03:02:05.719Z,96.03
2019-06-27T03:03:05.718Z,94.89
2019-06-27T03:04:05.706Z,95.03
2019-06-27T03:05:05.703Z,95.31
2019-06-27T03:06:05.697Z,95.03
2019-06-27T03:07:05.690Z,94.45
2019-06-27T03:08:05.692Z,95.07
2019-06-27T03:09:05.683Z,95.21
2019-06-27T03:10:05.679Z,94.64
2019-06-27T03:11:05.678Z,94.74
2019-06-27T03:12:05.679Z,94.45
2019-06-27T03:13:05.665Z,94.84
2019-06-27T03:14:05.663Z,94.45
2019-06-27T03:15:05.651Z,94.84
2019-06-27T03:16:05.657Z,94.07
2019-06-27T03:17:05.646Z,93.88
2019-06-27T03:18:05.645Z,94.17
2019-06-27T03:19:05.653Z,93.40
2019-06-27T03:20:05.633Z,94.26
2019-06-27T03:21:05.629Z,94.31
2019-06-27T03:22:06.182Z,95.46
2019-06-27T03:23:05.631Z,95.17
2019-06-27T03:24:05.618Z,95.56
2019-06-27T03:25:05.610Z,96.13
2019-06-27T03:26:05.608Z,96.03
2019-06-27T03:27:05.613Z,95.75
2019-06-27T03:28:05.597Z,95.26
2019-06-27T03:29:05.593Z,95.26
2019-06-27T03:30:05.592Z,95.07
2019-06-27T03:31:05.581Z,95.07
2019-06-27T03:32:05.580Z,95.07
2019-06-27T03:33:05.586Z,94.50
2019-06-27T03:34:05.579Z,94.45
2019-06-27T03:35:05.588Z,93.44
2019-06-27T03:36:05.564Z,93.06
2019-06-27T03:37:05.558Z,93.26
2019-06-27T03:38:05.547Z,93.06
2019-06-27T03:39:05.555Z,92.87
2019-06-27T03:40:05.544Z,93.01
2019-06-27T03:41:05.533Z,92.63
2019-06-27T03:42:05.531Z,92.01
2019-06-27T03:43:05.526Z,92.05
2019-06-27T03:44:05.519Z,92.24
2019-06-27T03:45:05.521Z,92.05
2019-06-27T03:46:05.513Z,92.05
2019-06-27T03:47:05.507Z,91.96
2019-06-27T03:48:05.502Z,91.43
2019-06-27T03:49:05.498Z,91.48
2019-06-27T03:50:05.489Z,91.43
2019-06-27T03:51:05.484Z,91.57
2019-06-27T03:52:05.485Z,91.48
2019-06-27T03:53:05.487Z,91.96
2019-06-27T03:54:05.486Z,91.77
2019-06-27T03:55:05.553Z,91.14
2019-06-27T03:56:05.482Z,91.09
2019-06-27T03:57:05.467Z,90.86
2019-06-27T03:58:05.458Z,91.77
2019-06-27T03:59:12.227Z,91.48
2019-06-27T04:00:05.496Z,92.01
2019-06-27T04:01:05.488Z,92.20
2019-06-27T04:02:05.430Z,92.10
2019-06-27T04:03:05.443Z,92.10
2019-06-27T04:04:05.425Z,91.43
2019-06-27T04:05:05.426Z,91.91
2019-06-27T04:06:05.424Z,91.91
2019-06-27T04:07:05.414Z,92.01
2019-06-27T04:08:05.410Z,92.01
2019-06-27T04:09:05.400Z,91.82
2019-06-27T04:10:05.396Z,91.34
2019-06-27T04:11:05.391Z,91.38
2019-06-27T04:12:05.402Z,90.76
2019-06-27T04:13:05.392Z,91.43
2019-06-27T04:14:05.394Z,92.01
2019-06-27T04:15:05.376Z,92.10
2019-06-27T04:16:05.374Z,92.68
2019-06-27T04:17:05.362Z,92.01
2019-06-27T04:18:05.360Z,91.86
2019-06-27T04:19:05.360Z,91.48
2019-06-27T04:20:05.358Z,90.71
2019-06-27T04:21:05.350Z,90.61
2019-06-27T04:22:05.342Z,90.42
2019-06-27T04:23:05.342Z,89.94
2019-06-27T04:24:05.339Z,90.71
2019-06-27T04:25:05.329Z,89.75
2019-06-27T04:26:05.323Z,89.75
2019-06-27T04:27:05.318Z,89.47
2019-06-27T04:28:05.314Z,89.27
2019-06-27T04:29:05.314Z,90.23
2019-06-27T04:30:05.311Z,90.04
2019-06-27T04:31:05.305Z,90.14
2019-06-27T04:32:05.299Z,90.61
2019-06-27T04:33:05.298Z,89.75
2019-06-27T04:34:05.291Z,89.75
2019-06-27T04:35:05.300Z,89.65
2019-06-27T04:36:05.279Z,90.04
2019-06-27T04:37:05.270Z,90.04
2019-06-27T04:38:05.277Z,89.65
2019-06-27T04:39:05.272Z,89.27
2019-06-27T04:40:05.257Z,89.85
2019-06-27T04:41:05.260Z,89.37
2019-06-27T04:42:05.259Z,89.56
2019-06-27T04:43:06.285Z,90.33
2019-06-27T04:44:05.247Z,90.81
2019-06-27T04:45:05.244Z,89.80
2019-06-27T04:46:05.230Z,89.51
2019-06-27T04:47:05.226Z,90.19
2019-06-27T04:48:05.244Z,90.09
2019-06-27T04:49:05.220Z,90.57
2019-06-27T04:50:05.231Z,90.76
2019-06-27T04:51:05.247Z,90.76
2019-06-27T04:52:05.205Z,90.00
2019-06-27T04:53:05.205Z,90.00
2019-06-27T04:54:05.200Z,89.71
2019-06-27T04:55:05.205Z,89.32
2019-06-27T04:56:05.190Z,88.84
2019-06-27T04:57:05.183Z,88.98
2019-06-27T04:58:05.179Z,88.22
2019-06-27T04:59:05.188Z,87.45
2019-06-27T05:00:05.176Z,86.68
2019-06-27T05:01:05.170Z,86.21
2019-06-27T05:02:05.163Z,85.53
2019-06-27T05:03:05.153Z,84.95
2019-06-27T05:04:05.153Z,84.28
2019-06-27T05:05:05.151Z,84.86
2019-06-27T05:06:05.146Z,84.67
2019-06-27T05:07:05.148Z,84.09
2019-06-27T05:08:05.141Z,84.48
2019-06-27T05:09:05.136Z,83.14
2019-06-27T05:10:05.127Z,83.42
2019-06-27T05:11:05.125Z,83.04
2019-06-27T05:12:05.118Z,83.04
2019-06-27T05:13:05.112Z,82.85
2019-06-27T05:14:05.108Z,83.04
2019-06-27T05:15:05.104Z,81.70
2019-06-27T05:16:05.101Z,81.75
2019-06-27T05:17:05.101Z,81.37
2019-06-27T05:18:05.094Z,81.66
2019-06-27T05:19:05.091Z,81.56
2019-06-27T05:20:05.082Z,81.08
2019-06-27T05:21:05.080Z,81.56
2019-06-27T05:22:05.074Z,81.46
2019-06-27T05:23:05.066Z,83.29
2019-06-27T05:24:05.062Z,84.05
2019-06-27T05:25:05.058Z,83.76
2019-06-27T05:26:05.058Z,82.62
2019-06-27T05:27:05.054Z,82.04
2019-06-27T05:28:05.046Z,81.27
2019-06-27T05:29:05.042Z,81.46
2019-06-27T05:30:10.075Z,82.04
2019-06-27T05:31:05.036Z,81.56
2019-06-27T05:32:05.032Z,82.62
2019-06-27T05:33:05.026Z,81.46
2019-06-27T05:34:05.022Z,81.22
2019-06-27T05:35:05.016Z,81.12
2019-06-27T05:36:05.012Z,79.30
2019-06-27T05:37:05.026Z,78.63
2019-06-27T05:38:05.007Z,78.19
2019-06-27T05:39:05.002Z,78.05
2019-06-27T05:40:05.001Z,78.19
2019-06-27T05:41:04.991Z,77.00
2019-06-27T05:42:04.989Z,77.29
2019-06-27T05:43:04.985Z,77.80
2019-06-27T05:44:04.989Z,78.19
2019-06-27T05:45:04.974Z,77.61
2019-06-27T05:46:04.974Z,77.42
2019-06-27T05:47:04.965Z,77.23
2019-06-27T05:48:04.967Z,77.71
2019-06-27T05:49:04.960Z,77.71
2019-06-27T05:50:04.957Z,77.71
2019-06-27T05:51:04.954Z,76.46
2019-06-27T05:52:04.949Z,75.82
2019-06-27T05:53:04.954Z,75.82
2019-06-27T05:54:04.940Z,76.21
2019-06-27T05:55:04.942Z,75.25
2019-06-27T05:56:04.947Z,73.37
2019-06-27T05:57:04.927Z,74.23
2019-06-27T05:58:04.929Z,73.08
2019-06-27T05:59:04.926Z,72.89
2019-06-27T06:00:04.944Z,70.68
2019-06-27T06:01:04.919Z,70.90
2019-06-27T06:02:04.919Z,70.81
2019-06-27T06:03:04.912Z,69.85
2019-06-27T06:04:04.905Z,69.66
2019-06-27T06:05:04.909Z,69.02
2019-06-27T06:06:04.914Z,67.86
2019-06-27T06:07:04.905Z,67.68
2019-06-27T06:08:04.903Z,67.48
2019-06-27T06:09:04.902Z,66.81
2019-06-27T06:10:04.914Z,67.25
2019-06-27T06:11:04.896Z,67.45
2019-06-27T06:12:04.897Z,66.68
2019-06-27T06:13:04.904Z,66.30
2019-06-27T06:14:04.895Z,66.30
2019-06-27T06:15:04.895Z,67.45
2019-06-27T06:16:04.895Z,67.16
2019-06-27T06:17:04.906Z,66.91
2019-06-27T06:18:04.888Z,66.04
2019-06-27T06:19:04.889Z,66.23
2019-06-27T06:20:04.903Z,65.84
2019-06-27T06:21:04.891Z,65.84
2019-06-27T06:22:04.892Z,65.75
2019-06-27T06:23:04.890Z,65.33
2019-06-27T06:24:04.887Z,65.94
2019-06-27T06:25:04.900Z,66.71
2019-06-27T06:26:05.060Z,66.52
2019-06-27T06:27:04.891Z,66.23
2019-06-27T06:28:04.886Z,65.94
2019-06-27T06:29:04.888Z,65.75
2019-06-27T06:30:04.928Z,65.88
2019-06-27T06:31:04.887Z,65.40
2019-06-27T06:32:04.897Z,65.30
2019-06-27T06:33:04.893Z,65.59
2019-06-27T06:34:04.895Z,65.20
2019-06-27T06:35:04.890Z,65.63
2019-06-27T06:36:04.893Z,64.56
2019-06-27T06:37:08.051Z,64.08
2019-06-27T06:38:04.889Z,64.18
2019-06-27T06:39:04.888Z,64.95
2019-06-27T06:40:04.946Z,64.37
2019-06-27T06:41:04.894Z,63.99
2019-06-27T06:42:04.892Z,63.12
2019-06-27T06:43:04.968Z,63.79
2019-06-27T06:44:04.907Z,63.25
2019-06-27T06:45:04.901Z,63.15
2019-06-27T06:46:04.897Z,63.25
2019-06-27T06:47:04.906Z,63.82
2019-06-27T06:48:04.924Z,63.54
2019-06-27T06:49:04.917Z,62.67
2019-06-27T06:50:04.903Z,61.22
2019-06-27T06:51:04.903Z,61.80
2019-06-27T06:52:04.905Z,61.52
2019-06-27T06:53:04.910Z,61.35
2019-06-27T06:54:04.905Z,60.97
2019-06-27T06:55:04.915Z,61.55
2019-06-27T06:56:04.914Z,60.58
2019-06-27T06:57:04.913Z,60.39
2019-06-27T06:58:04.918Z,60.87
2019-06-27T06:59:04.925Z,60.42
2019-06-27T07:00:04.913Z,59.75
2019-06-27T07:01:04.927Z,58.78
2019-06-27T07:02:04.929Z,59.72
2019-06-27T07:03:04.928Z,60.61
2019-06-27T07:04:04.933Z,60.13
2019-06-27T07:05:04.925Z,58.88
2019-06-27T07:06:04.934Z,58.59
2019-06-27T07:07:04.936Z,58.04
2019-06-27T07:08:04.943Z,58.91
2019-06-27T07:09:04.948Z,58.30
2019-06-27T07:10:04.948Z,58.11
2019-06-27T07:11:04.956Z,58.49
2019-06-27T07:12:04.955Z,58.49
2019-06-27T07:13:04.960Z,59.17
2019-06-27T07:14:04.956Z,59.30
2019-06-27T07:15:04.959Z,58.52
2019-06-27T07:16:05.011Z,58.52
2019-06-27T07:17:04.976Z,57.94
2019-06-27T07:18:04.978Z,58.14
2019-06-27T07:19:04.978Z,57.07
2019-06-27T07:20:04.985Z,56.72
2019-06-27T07:21:04.984Z,56.81
2019-06-27T07:22:04.993Z,56.84
2019-06-27T07:23:04.994Z,55.49
2019-06-27T07:24:04.997Z,53.66
2019-06-27T07:25:05.000Z,53.95
2019-06-27T07:26:05.008Z,55.40
2019-06-27T07:27:05.009Z,55.40
2019-06-27T07:28:05.016Z,54.53
2019-06-27T07:29:05.021Z,54.62
2019-06-27T07:30:05.021Z,53.47
2019-06-27T07:31:17.151Z,53.11
2019-06-27T07:32:05.037Z,53.01
2019-06-27T07:33:05.031Z,52.62
2019-06-27T07:34:05.041Z,52.23
2019-06-27T07:35:05.045Z,51.92
2019-06-27T07:36:05.046Z,52.21
2019-06-27T07:37:05.050Z,52.50
2019-06-27T07:38:05.057Z,52.21
2019-06-27T07:39:05.063Z,53.27
2019-06-27T07:40:05.063Z,53.17
2019-06-27T07:41:05.080Z,52.59
2019-06-27T07:42:05.069Z,52.23
2019-06-27T07:43:05.077Z,50.89
2019-06-27T07:44:05.082Z,51.17
2019-06-27T07:45:05.086Z,52.43
2019-06-27T07:46:05.131Z,51.27
2019-06-27T07:47:05.102Z,51.37
2019-06-27T07:48:05.106Z,52.23
2019-06-27T07:49:05.108Z,52.04
2019-06-27T07:50:05.108Z,50.89
2019-06-27T07:51:05.147Z,51.29
2019-06-27T07:52:05.133Z,50.11
2019-06-27T07:53:05.128Z,51.56
2019-06-27T07:54:05.132Z,50.31
2019-06-27T07:55:05.143Z,51.20
2019-06-27T07:56:05.142Z,50.33
2019-06-27T07:57:05.150Z,50.71
2019-06-27T07:58:05.150Z,49.73
2019-06-27T07:59:05.160Z,50.01
2019-06-27T08:00:05.216Z,51.07
2019-06-27T08:01:05.175Z,51.07
2019-06-27T08:02:05.171Z,51.01
2019-06-27T08:03:05.195Z,49.68
2019-06-27T08:04:05.201Z,49.19
2019-06-27T08:05:05.196Z,48.59
2019-06-27T08:06:05.199Z,49.24
2019-06-27T08:07:05.200Z,50.31
2019-06-27T08:08:05.210Z,51.27
2019-06-27T08:09:05.215Z,51.39
2019-06-27T08:10:05.217Z,50.52
2019-06-27T08:11:05.227Z,49.85
2019-06-27T08:12:05.227Z,49.97
2019-06-27T08:13:05.234Z,50.84
2019-06-27T08:14:05.243Z,48.83
2019-06-27T08:15:05.245Z,47.58
2019-06-27T08:16:05.259Z,49.19
2019-06-27T08:17:05.254Z,49.77
2019-06-27T08:18:05.257Z,49.19
2019-06-27T08:19:05.263Z,49.77
2019-06-27T08:20:05.276Z,50.35
2019-06-27T08:21:05.286Z,49.39
2019-06-27T08:22:05.280Z,52.22
2019-06-27T08:23:05.293Z,49.05
2019-06-27T08:24:05.300Z,49.05
2019-06-27T08:25:05.298Z,47.89
2019-06-27T08:26:05.303Z,47.79
2019-06-27T08:27:05.313Z,47.79
2019-06-27T08:28:05.325Z,48.64
2019-06-27T08:29:05.325Z,49.51
2019-06-27T08:30:08.269Z,48.54
2019-06-27T08:31:05.331Z,49.15
2019-06-27T08:32:05.338Z,49.60
2019-06-27T08:33:05.346Z,48.74
2019-06-27T08:34:05.354Z,49.02
2019-06-27T08:35:05.356Z,48.64
2019-06-27T08:36:05.448Z,48.64
2019-06-27T08:37:05.376Z,48.23
2019-06-27T08:38:05.374Z,49.22
2019-06-27T08:39:05.373Z,48.54
2019-06-27T08:40:05.381Z,47.77
2019-06-27T08:41:05.468Z,49.00
2019-06-27T08:42:05.392Z,48.52
2019-06-27T08:43:05.394Z,49.00
2019-06-27T08:44:05.401Z,49.07
2019-06-27T08:45:05.459Z,50.23
2019-06-27T08:46:05.410Z,49.17
2019-06-27T08:47:05.559Z,49.10
2019-06-27T08:48:05.473Z,49.19
2019-06-27T08:49:05.969Z,49.17
2019-06-27T08:50:05.578Z,49.37
2019-06-27T08:51:05.427Z,49.17
2019-06-27T08:52:05.426Z,49.55
2019-06-27T08:53:05.427Z,49.07
2019-06-27T08:54:05.426Z,49.07
2019-06-27T08:55:05.431Z,49.05
2019-06-27T08:56:05.434Z,49.63
2019-06-27T08:57:05.438Z,50.79
2019-06-27T08:58:05.437Z,50.40
2019-06-27T08:59:05.436Z,50.91
2019-06-27T09:00:05.438Z,49.49
2019-06-27T09:01:05.491Z,49.29
2019-06-27T09:02:09.214Z,48.83
2019-06-27T09:03:05.462Z,47.77
2019-06-27T09:04:05.455Z,47.60
2019-06-27T09:05:05.457Z,46.90
2019-06-27T09:06:05.455Z,47.28
2019-06-27T09:07:05.467Z,48.57
2019-06-27T09:08:05.465Z,46.75
2019-06-27T09:09:05.473Z,46.66
2019-06-27T09:10:05.475Z,46.05
2019-06-27T09:11:05.474Z,46.53
2019-06-27T09:12:05.481Z,47.11
2019-06-27T09:13:05.490Z,46.83
2019-06-27T09:14:05.494Z,47.11
2019-06-27T09:15:05.493Z,46.46
2019-06-27T09:16:05.500Z,46.53
2019-06-27T09:17:05.500Z,46.92
2019-06-27T09:18:05.508Z,46.84
2019-06-27T09:19:05.512Z,46.58
2019-06-27T09:20:05.515Z,44.64
2019-06-27T09:21:05.519Z,45.01
2019-06-27T09:22:05.519Z,45.20
2019-06-27T09:23:05.530Z,46.08
2019-06-27T09:24:05.535Z,45.88
2019-06-27T09:25:05.537Z,46.66
2019-06-27T09:26:05.542Z,45.98
2019-06-27T09:27:05.549Z,45.78
2019-06-27T09:28:05.551Z,45.71
2019-06-27T09:29:05.577Z,45.61
2019-06-27T09:30:05.572Z,46.29
2019-06-27T09:31:05.575Z,44.67
2019-06-27T09:32:05.603Z,44.98
2019-06-27T09:33:05.647Z,44.49
2019-06-27T09:34:05.587Z,44.10
2019-06-27T09:35:05.594Z,44.20
2019-06-27T09:36:05.597Z,42.94
2019-06-27T09:37:05.605Z,42.82
2019-06-27T09:38:05.616Z,44.27
2019-06-27T09:39:05.620Z,45.25
2019-06-27T09:40:05.625Z,44.10
2019-06-27T09:41:05.632Z,44.01
2019-06-27T09:42:05.641Z,44.88
2019-06-27T09:43:05.658Z,44.88
2019-06-27T09:44:05.655Z,45.95
2019-06-27T09:45:05.707Z,44.86
2019-06-27T09:46:05.683Z,46.70
2019-06-27T09:47:05.677Z,46.60
2019-06-27T09:48:05.689Z,46.43
2019-06-27T09:49:05.692Z,44.40
2019-06-27T09:50:05.701Z,43.82
2019-06-27T09:51:05.716Z,43.52
2019-06-27T09:52:05.722Z,44.10
2019-06-27T09:53:05.731Z,45.97
2019-06-27T09:54:05.731Z,48.71
2019-06-27T09:55:05.732Z,45.24
2019-06-27T09:56:05.749Z,42.81
2019-06-27T09:57:05.747Z,42.83
2019-06-27T09:58:05.766Z,41.88
2019-06-27T09:59:05.767Z,42.46
2019-06-27T10:00:05.777Z,43.05
2019-06-27T10:01:06.330Z,41.51
2019-06-27T10:02:05.792Z,41.20
2019-06-27T10:03:05.794Z,41.22
2019-06-27T10:04:05.803Z,41.22
2019-06-27T10:05:05.815Z,42.78
2019-06-27T10:06:05.829Z,42.10
2019-06-27T10:07:05.831Z,40.66
2019-06-27T10:08:05.838Z,42.41
2019-06-27T10:09:05.913Z,40.17
2019-06-27T10:10:05.878Z,38.91
2019-06-27T10:11:05.867Z,39.00
2019-06-27T10:12:05.882Z,39.39
2019-06-27T10:13:05.887Z,39.78
2019-06-27T10:14:05.894Z,41.24
2019-06-27T10:15:05.899Z,40.85
2019-06-27T10:16:05.915Z,39.10
2019-06-27T10:17:05.920Z,41.85
2019-06-27T10:18:05.933Z,41.26
2019-06-27T10:19:05.939Z,42.06
2019-06-27T10:20:05.949Z,40.91
2019-06-27T10:21:05.958Z,38.57
2019-06-27T10:22:05.964Z,39.34
2019-06-27T10:23:05.968Z,39.04
2019-06-27T10:24:05.991Z,37.97
2019-06-27T10:25:05.990Z,39.24
2019-06-27T10:26:05.998Z,39.16
2019-06-27T10:27:06.011Z,38.46
2019-06-27T10:28:06.013Z,37.48
2019-06-27T10:29:06.024Z,39.36
2019-06-27T10:30:06.030Z,37.87
2019-06-27T10:31:06.046Z,37.97
2019-06-27T10:32:06.061Z,37.85
2019-06-27T10:33:06.065Z,38.15
2019-06-27T10:34:06.084Z,38.13
2019-06-27T10:35:06.088Z,39.00
2019-06-27T10:36:06.103Z,38.98
2019-06-27T10:37:06.113Z,39.18
2019-06-27T10:38:06.112Z,38.96
2019-06-27T10:39:06.123Z,39.45
2019-06-27T10:40:06.137Z,39.94
2019-06-27T10:41:06.145Z,39.84
2019-06-27T10:42:06.151Z,39.45
2019-06-27T10:43:06.166Z,39.45
2019-06-27T10:44:06.173Z,40.34
2019-06-27T10:45:06.183Z,40.75
2019-06-27T10:46:06.189Z,39.10
2019-06-27T10:47:06.203Z,39.80
2019-06-27T10:48:06.210Z,41.26
2019-06-27T10:49:06.259Z,38.07
2019-06-27T10:50:06.247Z,37.87
2019-06-27T10:51:06.248Z,38.26
2019-06-27T10:52:06.260Z,38.36
2019-06-27T10:53:06.263Z,39.94
2019-06-27T10:54:06.281Z,38.59
2019-06-27T10:55:06.281Z,37.62
2019-06-27T10:56:06.291Z,37.63
2019-06-27T10:57:06.301Z,37.65
2019-06-27T10:58:06.310Z,37.67
2019-06-27T10:59:06.317Z,36.99
2019-06-27T11:00:06.416Z,35.82
2019-06-27T11:01:06.397Z,35.41
2019-06-27T11:02:06.347Z,36.08
2019-06-27T11:03:15.443Z,35.98
2019-06-27T11:04:06.367Z,37.45
2019-06-27T11:05:06.375Z,37.35
2019-06-27T11:06:06.383Z,38.04
2019-06-27T11:07:06.398Z,36.10
2019-06-27T11:08:06.408Z,36.57
2019-06-27T11:09:06.489Z,36.18
2019-06-27T11:10:06.425Z,36.55
2019-06-27T11:11:06.436Z,37.21
2019-06-27T11:12:06.445Z,37.41
2019-06-27T11:13:06.467Z,37.19
2019-06-27T11:14:06.464Z,38.44
2019-06-27T11:15:06.475Z,39.06
2019-06-27T11:16:06.488Z,38.57
2019-06-27T11:17:06.503Z,38.09
2019-06-27T11:18:06.513Z,37.99
2019-06-27T11:19:06.539Z,38.10
2019-06-27T11:20:06.519Z,37.83
2019-06-27T11:21:06.537Z,37.95
2019-06-27T11:22:06.545Z,37.29
2019-06-27T11:23:06.554Z,36.02
2019-06-27T11:24:06.565Z,35.82
2019-06-27T11:25:06.581Z,35.51
2019-06-27T11:26:09.404Z,36.27
2019-06-27T11:27:06.609Z,36.94
2019-06-27T11:28:09.265Z,37.04
2019-06-27T11:29:06.608Z,37.41
2019-06-27T11:30:07.034Z,38.28
2019-06-27T11:31:06.646Z,37.21
2019-06-27T11:32:06.644Z,37.21
2019-06-27T11:33:06.660Z,37.87
2019-06-27T11:34:06.662Z,37.58
2019-06-27T11:35:06.677Z,37.58
2019-06-27T11:36:06.683Z,38.26
2019-06-27T11:37:06.692Z,38.15
2019-06-27T11:38:06.713Z,38.15
2019-06-27T11:39:06.730Z,39.03
2019-06-27T11:40:06.728Z,39.03
2019-06-27T11:41:06.737Z,39.12
2019-06-27T11:42:06.747Z,38.24
2019-06-27T11:43:06.803Z,39.90
2019-06-27T11:44:06.764Z,38.48
2019-06-27T11:45:06.776Z,37.77
2019-06-27T11:46:08.892Z,37.97
2019-06-27T11:47:06.806Z,37.58
2019-06-27T11:48:06.813Z,38.46
2019-06-27T11:49:06.820Z,37.87
2019-06-27T11:50:06.828Z,38.07
2019-06-27T11:51:06.838Z,37.95
2019-06-27T11:52:06.843Z,39.03
2019-06-27T11:53:06.855Z,40.50
2019-06-27T11:54:06.883Z,39.14
2019-06-27T11:55:06.885Z,38.87
2019-06-27T11:56:06.891Z,37.62
2019-06-27T11:57:06.901Z,37.41
2019-06-27T11:58:06.911Z,37.60
2019-06-27T11:59:06.916Z,37.19
2019-06-27T12:00:06.941Z,38.07
2019-06-27T12:01:06.943Z,39.03
2019-06-27T12:02:06.955Z,39.03
2019-06-27T12:03:06.952Z,38.91
2019-06-27T12:04:06.975Z,40.39
2019-06-27T12:05:06.974Z,39.90
2019-06-27T12:06:06.997Z,39.80
2019-06-27T12:07:06.990Z,39.04
2019-06-27T12:08:10.824Z,38.17
2019-06-27T12:09:07.014Z,38.75
2019-06-27T12:10:07.026Z,38.46
2019-06-27T12:11:07.041Z,38.56
2019-06-27T12:12:07.057Z,39.06
2019-06-27T12:13:07.060Z,37.33
2019-06-27T12:14:07.069Z,37.71
2019-06-27T12:15:07.092Z,38.40
2019-06-27T12:16:07.086Z,37.15
2019-06-27T12:17:07.111Z,37.07
2019-06-27T12:18:07.117Z,36.99
2019-06-27T12:19:07.118Z,38.09
2019-06-27T12:20:07.131Z,35.35
2019-06-27T12:21:07.138Z,35.72
2019-06-27T12:22:07.147Z,35.51
2019-06-27T12:23:07.167Z,36.10
2019-06-27T12:24:07.162Z,36.66
2019-06-27T12:25:07.174Z,37.43
2019-06-27T12:26:07.185Z,37.21
2019-06-27T12:27:07.194Z,38.28
2019-06-27T12:28:07.213Z,39.26
2019-06-27T12:29:07.204Z,38.18
2019-06-27T12:30:07.230Z,39.36
2019-06-27T12:31:19.828Z,38.18
2019-06-27T12:32:07.250Z,38.38
2019-06-27T12:33:07.246Z,39.04
2019-06-27T12:34:07.889Z,39.34
2019-06-27T12:35:07.264Z,40.33
2019-06-27T12:36:07.273Z,38.10
2019-06-27T12:37:07.289Z,38.38
2019-06-27T12:38:07.297Z,38.38
2019-06-27T12:39:07.324Z,37.99
2019-06-27T12:40:07.321Z,38.28
2019-06-27T12:41:07.325Z,39.04
2019-06-27T12:42:07.331Z,39.14
2019-06-27T12:43:07.361Z,39.04
2019-06-27T12:44:07.345Z,39.14
2019-06-27T12:45:07.382Z,39.22
2019-06-27T12:46:07.376Z,39.90
2019-06-27T12:47:07.374Z,39.90
2019-06-27T12:48:07.864Z,41.75
2019-06-27T12:49:07.398Z,40.31
2019-06-27T12:50:07.448Z,40.13
2019-06-27T12:51:07.414Z,39.26
2019-06-27T12:52:07.424Z,39.06